AirNav   Air Wisconsin pilot careers
 
 1004 users online  

7M9 Salem Airport
Salem, Arkansas, USA

GOING TO SALEM?


FAA INFORMATION EFFECTIVE 04 JANUARY 2018

Location

FAA Identifier: 7M9
Lat/Long: 36-21-21.2690N / 091-49-51.4370W
36-21.354483N / 091-49.857283W
36.3559081 / -91.8309547
(estimated)
Elevation: 786.7 ft. / 239.8 m (surveyed)
Variation: 03E (1990)
From city: 1 mile S of SALEM, AR
Time zone: UTC -6 (UTC -5 during Daylight Saving Time)
Zip code: 72576

Airport Operations

Airport use: Open to the public
Activation date: 11/1969
Control tower: no
ARTCC: MEMPHIS CENTER
FSS: JONESBORO FLIGHT SERVICE STATION
NOTAMs facility: JBR (NOTAM-D service available)
Attendance: UNATNDD
Wind indicator: lighted
Segmented circle: no
Lights: ACTVT MIRL RY 02/20 - CTAF.
Beacon: white-green (lighted land airport)
Operates sunset to sunrise.

Airport Communications

CTAF: 122.9

Nearby radio navigation aids

VOR radial/distance  VOR name  Freq  Var
FLPr081/30.5FLIPPIN VOR/DME112.8003E

Airport Services

Fuel available: 100LL
SELF SERVICE FUEL TEMPORARILY OTS
Parking: tiedowns
Bottled oxygen: NONE
Bulk oxygen: NONE

Runway Information

Runway 2/20

Dimensions: 3489 x 50 ft. / 1063 x 15 m
Surface: asphalt, in fair condition
Runway edge lights: medium intensity
RUNWAY 2  RUNWAY 20
Latitude: 36-21.089933N36-21.619017N
Longitude: 091-49.996483W091-49.718050W
Elevation: 786.7 ft.704.0 ft.
Traffic pattern: leftleft
Runway heading: 020 magnetic, 023 true200 magnetic, 203 true
Displaced threshold: 1233 ft.248 ft.
Markings: basic, in fair conditionnonprecision, in fair condition
Touchdown point: yes, no lightsyes, no lights
Obstructions: 50 ft. hill, lighted, 200 ft. from runway, 150 ft. right of centerline
+50 FT HILL 20 FT FM THLD BOTH SIDES OF CNTRLN.
15 ft. tree, 400 ft. from runway, 13:1 slope to clear
+60 FT TREES 50 FT L OF CNTRLN 100 FT FM RY END; +10 FT ROAD 50 FT FM RY END.

Airport Ownership and Management from official FAA records

Ownership: Publicly-owned
Owner: CITY OF SALEM
PO BOX 619
SALEM, AR 72576
Phone 870-895-3478
Manager: RON PLUMLEE
PO BOX 325
SALEM, AR 72576
Phone (870) 371-1008

Airport Operational Statistics

Aircraft based on the field: 10
Single engine airplanes: 8
Ultralights: 2
    
Aircraft operations: avg 60/week *
48% transient general aviation
48% local general aviation
5% military
* for 12-month period ending 30 June 2017

Additional Remarks

RY 02 HAS 3 FT DITCH AT END OF RY EXTENDING 700 FT ALONG EAST SIDE OF RY.
ALL ACFT LAND RY 20; TKOF RY 02.
DEER ON & INVOF RY.

Instrument Procedures

There are no published instrument procedures at 7M9.

Some nearby airports with instrument procedures:

6M2 - Horseshoe Bend Airport (9 nm SE)
KCVK - Sharp County Regional Airport (14 nm SE)
42A - Melbourne Municipal Airport - John E Miller Field (17 nm S)
KBPK - Baxter County Airport (31 nm W)
KUNO - West Plains Regional Airport (32 nm N)
 
Loc | Ops | Rwys | IFR | FBO | Links
Com | Nav | Svcs | Stats | Notes

Fly Arkansas
AirBoss

 
Area around 7M9 (Salem Airport)
 
Road maps at: MapQuest Bing Google
 
Aerial photo
WARNING: Photo may not be current or correct
Aerial photo of 7M9 (Salem Airport)
Photo courtesy of the Arkansas Department of Aeronautics
Taken in the Spring of 2007

Do you have a better or more recent aerial photo of Salem Airport that you would like to share? If so, please send us your photo.

 
Sectional chart

 
Airport distance calculator
Flying to Salem Airport? Find the distance to fly.

From to 7M9

Sunrise and sunset
Times for 21-Jan-2018
 Local
(UTC-6)
 Zulu
(UTC)
Morning civil twilight06:4912:49
Sunrise07:1713:17
Sunset17:2123:21
Evening civil twilight17:4823:48

Current date and time
Zulu (UTC)  21-Jan-2018 16:12:30
Local (UTC-6)  21-Jan-2018 10:12:30
 
METAR
KBPK 
31nm W 
211602Z AUTO 20012G18KT 10SM BKN020 BKN040 18/14 A2995 RMK AO2 T01780139
KFLP 
31nm W 
211556Z AUTO 18008G16KT 10SM FEW038 18/14 A2996 RMK AO2 SLP142 T01830139
KUNO 
32nm N 
211553Z AUTO 16012G18KT 10SM BKN007 OVC012 14/13 A2998 RMK AO2 CIG 005V010 SLP149 T01440128
KBVX 
39nm S 
211605Z AUTO 18009KT 7SM OVC006 15/13 A3003 RMK AO2
KARG 
47nm E 
211556Z AUTO 17011KT 8SM OVC004 12/11 A3005 RMK AO2 SLP176 T01170111
TAF
KBPK 
31nm W 
211139Z 2112/2212 19007KT P6SM SCT035 OVC250 WS020/20045KT TEMPO 2112/2115 OVC035 FM211500 18009G18KT P6SM VCSH OVC035 FM211800 18010G20KT P6SM VCSH OVC025 FM220000 15016G26KT P6SM -SHRA OVC035 TEMPO 2200/2204 5SM TSRA BR OVC025CB FM220600 19015G25KT 5SM SHRA BR OVC025
NOTAMs
Click for the latest NOTAMs
NOTAMs are issued by the DoD/FAA and will open in a separate window not controlled by AirNav.

 

 
 

FBO, Fuel Providers, and Aircraft Ground Support

  
 Business Name 
 
 Contact 
 
 Services / Description 
 
Fuel Prices
 
Comments
  
City of Salem 870-895-2440
no information available

If you are affiliated with City of Salem and would like to show here your services, contact info, web link, logo, and more, click here
100LL
SS $4.65 
 Updated 16-Jan-2017
 
   write
SS=Self service
Update Fuel Prices
 

Would you like to see your business listed on this page?

 If your business provides an interesting product or service to pilots, flight crews, aircraft, or users of the Salem Airport, you should consider listing it here.  To start the listing process, click on the button below
 
Add a business
 

Other Pages about Salem Airport

Update a link
 
Copyright © AirNav, LLC. All rights reserved. Privacy Policy  Contact